createdAt,value
2023-11-21T00:00:13.175Z,0.09
2023-11-21T00:03:01.181Z,0.40
2023-11-21T00:05:29.112Z,-0.15
2023-11-21T00:07:56.559Z,-0.12
2023-11-21T00:10:24.460Z,-0.03
2023-11-21T00:12:51.874Z,0.07
2023-11-21T00:15:19.986Z,0.01
2023-11-21T00:17:47.882Z,-0.11
2023-11-21T00:20:15.509Z,-0.17
2023-11-21T00:22:43.109Z,0.02
2023-11-21T00:25:11.441Z,-0.05
2023-11-21T00:27:39.208Z,0.16
2023-11-21T00:30:07.955Z,-0.07
2023-11-21T00:32:37.111Z,-0.13
2023-11-21T00:35:07.210Z,-0.07
2023-11-21T00:37:34.677Z,-0.02
2023-11-21T00:40:11.655Z,0.02
2023-11-21T00:42:39.162Z,0.07
2023-11-21T00:45:07.931Z,0.12
2023-11-21T00:47:35.543Z,-0.02
2023-11-21T00:50:03.257Z,-0.35
2023-11-21T00:52:31.050Z,-0.03
2023-11-21T00:55:01.213Z,-0.19
2023-11-21T00:57:28.730Z,-0.36
2023-11-21T00:59:56.876Z,-0.20
2023-11-21T01:02:24.270Z,-0.17
2023-11-21T01:04:52.062Z,-0.02
2023-11-21T01:07:21.859Z,-0.17
2023-11-21T01:09:49.949Z,-0.06
2023-11-21T01:12:18.774Z,0.30
2023-11-21T01:14:46.693Z,0.08
2023-11-21T01:17:14.143Z,0.08
2023-11-21T01:19:42.763Z,0.06
2023-11-21T01:22:10.546Z,0.04
2023-11-21T01:24:38.294Z,-0.01
2023-11-21T01:27:05.829Z,0.04
2023-11-21T01:29:33.596Z,0.06
2023-11-21T01:32:00.971Z,0.27
2023-11-21T01:34:28.800Z,0.26
2023-11-21T01:36:56.085Z,0.06
2023-11-21T01:39:25.334Z,0.04
2023-11-21T01:41:53.272Z,0.63
2023-11-21T01:44:20.983Z,0.39
2023-11-21T01:46:49.391Z,0.21
2023-11-21T01:49:17.462Z,0.33
2023-11-21T01:51:50.349Z,0.24
2023-11-21T01:54:20.098Z,0.38
2023-11-21T01:56:48.394Z,0.12
2023-11-21T01:59:22.788Z,0.29
2023-11-21T02:01:51.687Z,0.48
2023-11-21T02:04:21.383Z,0.18
2023-11-21T02:06:48.983Z,0.71
2023-11-21T02:09:16.869Z,0.12
2023-11-21T02:11:45.302Z,0.36
2023-11-21T02:14:15.048Z,0.05
2023-11-21T02:16:42.704Z,0.58
2023-11-21T02:19:26.645Z,0.10
2023-11-21T02:21:55.020Z,-0.01
2023-11-21T02:24:23.751Z,0.29
2023-11-21T02:26:54.894Z,0.52
2023-11-21T02:29:23.486Z,0.22
2023-11-21T02:31:55.931Z,0.15
2023-11-21T02:34:26.642Z,0.28
2023-11-21T02:36:55.334Z,-0.08
2023-11-21T02:39:26.178Z,0.54
2023-11-21T02:41:53.647Z,0.57
2023-11-21T02:44:21.404Z,-0.04
2023-11-21T02:46:49.085Z,0.44
2023-11-21T02:49:16.824Z,0.33
2023-11-21T02:51:44.779Z,0.58
2023-11-21T02:54:12.612Z,0.55
2023-11-21T02:56:41.309Z,0.11
2023-11-21T02:59:09.023Z,0.47
2023-11-21T03:01:36.510Z,0.11
2023-11-21T03:04:04.598Z,0.03
2023-11-21T03:06:32.138Z,0.28
2023-11-21T03:08:59.823Z,0.35
2023-11-21T03:11:27.490Z,0.14
2023-11-21T03:13:55.254Z,0.41
2023-11-21T03:16:22.864Z,0.51
2023-11-21T03:18:51.338Z,0.70
2023-11-21T03:21:18.993Z,0.54
2023-11-21T03:23:46.729Z,0.62
2023-11-21T03:26:14.507Z,0.32
2023-11-21T03:28:42.387Z,0.69
2023-11-21T03:31:10.375Z,0.51
2023-11-21T03:33:38.228Z,0.53
2023-11-21T03:36:05.854Z,0.34
2023-11-21T03:38:33.442Z,0.28
2023-11-21T03:41:00.862Z,0.15
2023-11-21T03:43:30.603Z,0.41
2023-11-21T03:45:57.995Z,0.45
2023-11-21T03:48:25.519Z,0.43
2023-11-21T03:50:52.782Z,0.56
2023-11-21T03:53:20.381Z,0.75
2023-11-21T03:55:47.875Z,0.66
2023-11-21T03:58:15.564Z,0.61
2023-11-21T04:00:42.863Z,0.86
2023-11-21T04:03:10.598Z,0.71
2023-11-21T04:05:38.007Z,0.41
2023-11-21T04:08:05.701Z,0.57
2023-11-21T04:10:33.178Z,0.64
2023-11-21T04:13:01.655Z,0.65
2023-11-21T04:15:29.112Z,0.46
2023-11-21T04:17:58.008Z,0.65
2023-11-21T04:20:25.627Z,0.73
2023-11-21T04:22:53.313Z,0.56
2023-11-21T04:25:20.964Z,0.08
2023-11-21T04:27:48.886Z,0.03
2023-11-21T04:30:16.363Z,0.36
2023-11-21T04:32:44.118Z,0.24
2023-11-21T04:35:11.933Z,-0.02
2023-11-21T04:37:39.696Z,0.27
2023-11-21T04:40:08.513Z,0.24
2023-11-21T04:42:37.580Z,0.37
2023-11-21T04:45:09.961Z,0.27
2023-11-21T04:47:37.761Z,0.47
2023-11-21T04:50:07.244Z,0.43
2023-11-21T04:52:35.088Z,0.60
2023-11-21T04:55:03.814Z,0.46
2023-11-21T04:57:32.415Z,0.41
2023-11-21T04:59:59.876Z,0.56
2023-11-21T05:02:33.990Z,0.54
2023-11-21T05:05:05.427Z,0.75
2023-11-21T05:07:33.821Z,0.84
2023-11-21T05:10:01.194Z,0.76
2023-11-21T05:12:28.918Z,0.78
2023-11-21T05:14:57.185Z,0.64
2023-11-21T05:17:24.838Z,0.72
2023-11-21T05:19:53.033Z,0.69
2023-11-21T05:22:21.496Z,0.78
2023-11-21T05:24:48.839Z,0.86
2023-11-21T05:27:17.277Z,0.82
2023-11-21T05:29:44.543Z,0.75
2023-11-21T05:32:12.265Z,0.79
2023-11-21T05:34:39.732Z,0.87
2023-11-21T05:37:07.482Z,0.79
2023-11-21T05:39:34.833Z,0.85
2023-11-21T05:42:02.973Z,0.80
2023-11-21T05:44:30.334Z,0.55
2023-11-21T05:47:00.112Z,0.78
2023-11-21T05:49:27.783Z,0.88
2023-11-21T05:51:55.514Z,0.64
2023-11-21T05:54:23.850Z,0.75
2023-11-21T05:56:51.524Z,0.73
2023-11-21T05:59:20.689Z,0.66
2023-11-21T06:01:49.655Z,0.74
2023-11-21T06:04:17.103Z,0.66
2023-11-21T06:06:45.381Z,0.74
2023-11-21T06:09:13.281Z,0.84
2023-11-21T06:11:41.002Z,0.59
2023-11-21T06:14:10.438Z,0.87
2023-11-21T06:16:38.165Z,0.69
2023-11-21T06:19:06.642Z,0.74
2023-11-21T06:21:35.152Z,0.78
2023-11-21T06:24:02.840Z,0.86
2023-11-21T06:26:30.418Z,0.84
2023-11-21T06:28:58.321Z,0.75
2023-11-21T06:31:26.107Z,0.54
2023-11-21T06:33:54.177Z,0.50
2023-11-21T06:36:22.148Z,0.59
2023-11-21T06:38:49.554Z,0.61
2023-11-21T06:41:17.167Z,0.61
2023-11-21T06:43:47.920Z,0.65
2023-11-21T06:46:20.312Z,0.65
2023-11-21T06:48:47.840Z,0.71
2023-11-21T06:51:15.530Z,0.59
2023-11-21T06:53:42.858Z,0.40
2023-11-21T06:56:18.175Z,0.58
2023-11-21T06:58:47.120Z,0.68
2023-11-21T07:01:14.996Z,0.67
2023-11-21T07:03:42.820Z,0.80
2023-11-21T07:06:10.597Z,0.77
2023-11-21T07:08:38.394Z,0.87
2023-11-21T07:11:06.195Z,1.17
2023-11-21T07:13:33.564Z,1.12
2023-11-21T07:16:01.421Z,0.75
2023-11-21T07:18:28.919Z,1.08
2023-11-21T07:20:56.613Z,0.70
2023-11-21T07:23:24.161Z,0.94
2023-11-21T07:25:51.871Z,1.03
2023-11-21T07:28:19.385Z,0.95
2023-11-21T07:30:46.977Z,0.87
2023-11-21T07:33:14.306Z,1.16
2023-11-21T07:35:42.017Z,0.98
2023-11-21T07:38:09.360Z,1.05
2023-11-21T07:40:37.586Z,1.17
2023-11-21T07:43:04.873Z,1.24
2023-11-21T07:45:32.550Z,1.44
2023-11-21T07:48:02.102Z,1.48
2023-11-21T07:50:29.966Z,1.02
2023-11-21T07:52:59.150Z,1.51
2023-11-21T07:55:27.921Z,1.64
2023-11-21T07:57:55.235Z,1.38
2023-11-21T08:00:22.907Z,2.05
2023-11-21T08:02:50.399Z,2.10
2023-11-21T08:05:25.019Z,1.86
2023-11-21T08:07:55.912Z,1.35
2023-11-21T08:10:23.762Z,2.00
2023-11-21T08:12:51.958Z,1.37
2023-11-21T08:15:19.920Z,1.89
2023-11-21T08:17:48.199Z,2.15
2023-11-21T08:20:19.338Z,2.00
2023-11-21T08:22:49.082Z,2.14
2023-11-21T08:25:18.645Z,1.75
2023-11-21T08:27:46.109Z,2.09
2023-11-21T08:30:15.507Z,1.96
2023-11-21T08:32:42.867Z,2.06
2023-11-21T08:35:13.617Z,2.26
2023-11-21T08:37:41.506Z,2.46
2023-11-21T08:40:10.750Z,2.97
2023-11-21T08:42:38.775Z,3.34
2023-11-21T08:45:07.280Z,2.71
2023-11-21T08:47:34.717Z,2.54
2023-11-21T08:50:03.187Z,1.98
2023-11-21T08:52:30.885Z,2.42
2023-11-21T08:54:58.609Z,2.61
2023-11-21T08:57:26.881Z,2.40
2023-11-21T08:59:56.770Z,3.09
2023-11-21T09:02:24.752Z,3.31
2023-11-21T09:04:53.886Z,3.02
2023-11-21T09:07:21.800Z,3.99
2023-11-21T09:09:49.996Z,3.50
2023-11-21T09:12:18.174Z,3.44
2023-11-21T09:14:45.771Z,3.99
2023-11-21T09:17:13.302Z,4.02
2023-11-21T09:19:41.848Z,5.52
2023-11-21T09:22:09.281Z,5.55
2023-11-21T09:24:38.013Z,6.09
2023-11-21T09:27:06.623Z,4.31
2023-11-21T09:29:34.368Z,4.12
2023-11-21T09:32:02.572Z,4.46
2023-11-21T09:34:30.499Z,3.95
2023-11-21T09:36:57.898Z,4.26
2023-11-21T09:39:25.810Z,3.61
2023-11-21T09:42:00.150Z,3.97
2023-11-21T09:44:45.190Z,4.75
2023-11-21T09:47:17.497Z,3.58
2023-11-21T09:49:50.687Z,3.30
2023-11-21T09:52:26.861Z,3.11
2023-11-21T09:54:56.139Z,3.00
2023-11-21T09:57:24.794Z,2.22
2023-11-21T10:00:00.607Z,2.51
2023-11-21T10:02:33.878Z,2.61
2023-11-21T10:05:02.136Z,2.16
2023-11-21T10:07:32.083Z,2.36
2023-11-21T10:10:01.997Z,2.31
2023-11-21T10:12:31.011Z,2.65
2023-11-21T10:15:01.855Z,2.49
2023-11-21T10:17:37.538Z,2.21
2023-11-21T10:20:12.677Z,2.06
2023-11-21T10:22:44.502Z,2.02
2023-11-21T10:25:15.608Z,1.99
2023-11-21T10:27:44.332Z,2.22
2023-11-21T10:30:17.235Z,2.32
2023-11-21T10:32:44.843Z,2.19
2023-11-21T10:35:13.743Z,2.34
2023-11-21T10:37:41.681Z,2.43
2023-11-21T10:40:13.693Z,2.61
2023-11-21T10:42:41.905Z,2.99
2023-11-21T10:45:16.204Z,2.63
2023-11-21T10:47:45.481Z,2.38
2023-11-21T10:50:13.376Z,2.48
2023-11-21T10:52:48.068Z,2.33
2023-11-21T10:55:22.803Z,2.40
2023-11-21T10:57:53.676Z,1.94
2023-11-21T11:00:25.316Z,2.13
2023-11-21T11:02:55.722Z,2.35
2023-11-21T11:05:25.138Z,2.42
2023-11-21T11:08:03.204Z,1.92
2023-11-21T11:10:31.148Z,2.04
2023-11-21T11:12:59.632Z,2.23
2023-11-21T11:15:28.634Z,2.05
2023-11-21T11:17:59.697Z,2.40
2023-11-21T11:20:34.727Z,2.34
2023-11-21T11:23:14.354Z,2.31
2023-11-21T11:25:42.057Z,2.21
2023-11-21T11:28:15.512Z,2.15
2023-11-21T11:31:06.794Z,2.26
2023-11-21T11:33:49.750Z,2.40
2023-11-21T11:36:26.896Z,2.32
2023-11-21T11:38:57.235Z,2.19
2023-11-21T11:41:33.585Z,2.42
2023-11-21T11:44:05.656Z,2.21
2023-11-21T11:46:46.696Z,2.12
2023-11-21T11:49:29.428Z,2.31
2023-11-21T11:52:35.686Z,1.99
2023-11-21T11:55:05.443Z,2.20
2023-11-21T11:57:36.254Z,2.05
2023-11-21T12:00:17.945Z,2.28
2023-11-21T12:02:46.755Z,2.17
2023-11-21T12:05:24.836Z,2.23
2023-11-21T12:07:58.666Z,1.92
2023-11-21T12:10:41.858Z,2.04
2023-11-21T12:13:11.731Z,2.08
2023-11-21T12:15:42.062Z,2.18
2023-11-21T12:18:09.861Z,2.24
2023-11-21T12:20:40.496Z,2.10
2023-11-21T12:23:10.690Z,2.14
2023-11-21T12:25:39.489Z,2.09
2023-11-21T12:28:07.431Z,2.04
2023-11-21T12:30:37.301Z,1.78
2023-11-21T12:33:05.744Z,1.92
2023-11-21T12:35:35.535Z,2.17
2023-11-21T12:38:06.284Z,2.15
2023-11-21T12:40:34.139Z,2.08
2023-11-21T12:43:05.566Z,2.16
2023-11-21T12:45:33.502Z,2.01
2023-11-21T12:48:10.264Z,2.01
2023-11-21T12:50:39.272Z,2.06
2023-11-21T12:53:13.784Z,1.88
2023-11-21T12:55:43.395Z,1.80
2023-11-21T12:58:12.856Z,1.71
2023-11-21T13:00:44.037Z,1.70
2023-11-21T13:03:17.204Z,2.17
2023-11-21T13:05:49.216Z,1.74
2023-11-21T13:08:21.356Z,1.65
2023-11-21T13:10:55.577Z,1.75
2023-11-21T13:13:25.564Z,1.87
2023-11-21T13:15:57.491Z,1.95
2023-11-21T13:18:28.090Z,1.69
2023-11-21T13:21:00.976Z,1.95
2023-11-21T13:23:30.575Z,1.99
2023-11-21T13:26:02.772Z,2.10
2023-11-21T13:28:36.362Z,2.00
2023-11-21T13:31:11.796Z,1.87
2023-11-21T13:33:42.507Z,2.13
2023-11-21T13:36:11.306Z,1.90
2023-11-21T13:38:44.072Z,2.30
2023-11-21T13:41:13.849Z,2.25
2023-11-21T13:43:45.229Z,2.18
2023-11-21T13:46:18.503Z,2.48
2023-11-21T13:48:52.508Z,2.60
2023-11-21T13:51:21.630Z,2.65
2023-11-21T13:53:52.223Z,2.43
2023-11-21T13:56:27.925Z,2.58
2023-11-21T13:58:57.014Z,2.62
2023-11-21T14:01:31.973Z,2.67
2023-11-21T14:04:20.920Z,2.28
2023-11-21T14:06:55.978Z,2.48
2023-11-21T14:09:26.951Z,2.46
2023-11-21T14:11:58.111Z,2.61
2023-11-21T14:14:27.163Z,2.55
2023-11-21T14:16:55.074Z,2.58
2023-11-21T14:19:26.836Z,2.63
2023-11-21T14:21:54.651Z,2.42
2023-11-21T14:24:24.847Z,2.44
2023-11-21T14:26:52.574Z,2.26
2023-11-21T14:29:25.168Z,2.18
2023-11-21T14:31:54.930Z,2.41
2023-11-21T14:34:23.542Z,2.52
2023-11-21T14:36:51.725Z,2.66
2023-11-21T14:39:27.859Z,2.63
2023-11-21T14:42:00.620Z,2.67
2023-11-21T14:44:34.100Z,2.64
2023-11-21T14:47:04.583Z,2.52
2023-11-21T14:49:43.001Z,2.51
2023-11-21T14:52:27.144Z,2.47
2023-11-21T14:55:14.742Z,2.32
2023-11-21T14:57:42.181Z,2.15
2023-11-21T15:00:30.490Z,2.31
2023-11-21T15:02:58.005Z,2.45
2023-11-21T15:05:28.269Z,2.11
2023-11-21T15:07:58.342Z,2.14
2023-11-21T15:10:39.525Z,2.39
2023-11-21T15:13:11.396Z,2.33
2023-11-21T15:15:40.792Z,2.43
2023-11-21T15:18:08.312Z,2.40
2023-11-21T15:20:36.278Z,2.38
2023-11-21T15:23:05.910Z,2.20
2023-11-21T15:25:33.901Z,2.31
2023-11-21T15:28:01.292Z,2.17
2023-11-21T15:30:33.605Z,2.07
2023-11-21T15:33:00.853Z,2.15
2023-11-21T15:35:31.992Z,2.16
2023-11-21T15:38:00.993Z,2.09
2023-11-21T15:40:29.141Z,2.23
2023-11-21T15:42:56.543Z,1.97
2023-11-21T15:45:27.209Z,1.95
2023-11-21T15:47:54.932Z,1.85
2023-11-21T15:50:22.640Z,1.65
2023-11-21T15:52:57.347Z,1.93
2023-11-21T15:55:26.951Z,1.77
2023-11-21T15:57:54.370Z,1.80
2023-11-21T16:00:24.150Z,2.03
2023-11-21T16:02:52.180Z,2.03
2023-11-21T16:05:20.373Z,1.98
2023-11-21T16:07:48.484Z,1.92
2023-11-21T16:10:16.980Z,1.73
2023-11-21T16:12:44.350Z,1.86
2023-11-21T16:15:13.212Z,2.02
2023-11-21T16:17:43.037Z,1.90
2023-11-21T16:20:14.009Z,1.69
2023-11-21T16:22:42.083Z,1.83
2023-11-21T16:25:14.291Z,1.67
2023-11-21T16:27:42.052Z,1.50
2023-11-21T16:30:10.106Z,1.51
2023-11-21T16:32:38.062Z,1.55
2023-11-21T16:35:06.405Z,1.31
2023-11-21T16:37:33.857Z,1.32
2023-11-21T16:40:01.592Z,1.01
2023-11-21T16:42:31.632Z,0.99
2023-11-21T16:44:59.454Z,0.93
2023-11-21T16:47:29.425Z,0.94
2023-11-21T16:49:59.531Z,0.98
2023-11-21T16:52:27.504Z,1.06
2023-11-21T16:54:55.482Z,1.16
2023-11-21T16:57:23.042Z,1.00
2023-11-21T16:59:52.162Z,0.93
2023-11-21T17:02:20.529Z,0.78
2023-11-21T17:04:50.567Z,0.99
2023-11-21T17:07:24.203Z,0.84
2023-11-21T17:09:52.244Z,0.61
2023-11-21T17:12:20.035Z,0.51
2023-11-21T17:14:50.499Z,0.71
2023-11-21T17:17:18.405Z,0.78
2023-11-21T17:19:46.179Z,0.75
2023-11-21T17:22:13.777Z,0.78
2023-11-21T17:24:43.763Z,0.82
2023-11-21T17:27:11.938Z,0.86
2023-11-21T17:29:40.132Z,0.80
2023-11-21T17:32:07.580Z,0.82
2023-11-21T17:34:35.406Z,0.68
2023-11-21T17:37:05.343Z,0.87
2023-11-21T17:39:33.606Z,0.92
2023-11-21T17:42:01.999Z,0.79
2023-11-21T17:44:29.870Z,0.95
2023-11-21T17:46:57.426Z,0.69
2023-11-21T17:49:25.374Z,0.74
2023-11-21T17:51:52.974Z,0.90
2023-11-21T17:54:20.920Z,0.87
2023-11-21T17:56:50.522Z,0.65
2023-11-21T17:59:18.262Z,0.84
2023-11-21T18:01:48.179Z,0.93
2023-11-21T18:04:16.043Z,0.87
2023-11-21T18:06:44.096Z,0.91
2023-11-21T18:09:12.123Z,0.78
2023-11-21T18:11:39.959Z,0.84
2023-11-21T18:14:11.122Z,0.82
2023-11-21T18:16:39.748Z,0.88
2023-11-21T18:19:08.074Z,0.78
2023-11-21T18:21:39.006Z,0.67
2023-11-21T18:24:08.627Z,0.78
2023-11-21T18:26:36.147Z,0.74
2023-11-21T18:29:04.084Z,0.95
2023-11-21T18:31:31.808Z,0.84
2023-11-21T18:33:59.577Z,0.73
2023-11-21T18:36:27.010Z,0.81
2023-11-21T18:38:55.045Z,0.75
2023-11-21T18:41:24.395Z,0.58
2023-11-21T18:43:52.313Z,0.71
2023-11-21T18:46:21.192Z,0.74
2023-11-21T18:48:50.450Z,0.66
2023-11-21T18:51:18.066Z,0.49
2023-11-21T18:53:45.704Z,0.57
2023-11-21T18:56:22.468Z,0.55
2023-11-21T18:58:50.311Z,0.50
2023-11-21T19:01:32.080Z,0.37
2023-11-21T19:04:00.374Z,0.14
2023-11-21T19:06:28.304Z,0.36
2023-11-21T19:08:56.167Z,0.53
2023-11-21T19:11:24.304Z,0.35
2023-11-21T19:13:53.330Z,0.27
2023-11-21T19:16:22.319Z,0.23
2023-11-21T19:18:52.937Z,0.31
2023-11-21T19:21:20.885Z,0.26
2023-11-21T19:23:49.953Z,0.38
2023-11-21T19:26:17.513Z,0.19
2023-11-21T19:28:45.862Z,0.13
2023-11-21T19:31:20.684Z,0.30
2023-11-21T19:33:49.320Z,0.32
2023-11-21T19:36:17.681Z,0.22
2023-11-21T19:38:46.391Z,0.35
2023-11-21T19:41:18.190Z,0.55
2023-11-21T19:43:47.038Z,0.51
2023-11-21T19:46:14.866Z,0.41
2023-11-21T19:48:43.893Z,0.52
2023-11-21T19:51:13.200Z,0.44
2023-11-21T19:53:41.022Z,0.54
2023-11-21T19:56:11.933Z,0.48
2023-11-21T19:58:43.098Z,0.45
2023-11-21T20:01:11.265Z,0.50
2023-11-21T20:03:40.153Z,0.37
2023-11-21T20:06:08.183Z,0.45
2023-11-21T20:08:36.956Z,0.56
2023-11-21T20:11:05.417Z,0.38
2023-11-21T20:13:33.737Z,0.44
2023-11-21T20:16:01.289Z,0.44
2023-11-21T20:18:32.054Z,0.41
2023-11-21T20:21:00.030Z,0.53
2023-11-21T20:23:32.663Z,0.52
2023-11-21T20:26:00.438Z,0.27
2023-11-21T20:28:28.794Z,0.37
2023-11-21T20:30:58.180Z,0.33
2023-11-21T20:33:26.359Z,0.38
2023-11-21T20:35:53.829Z,0.31
2023-11-21T20:38:23.602Z,0.18
2023-11-21T20:40:51.165Z,0.30
2023-11-21T20:43:18.888Z,-0.23
2023-11-21T20:45:46.245Z,-0.16
2023-11-21T20:48:15.161Z,-0.24
2023-11-21T20:50:45.356Z,-0.14
2023-11-21T20:53:13.398Z,-0.36
2023-11-21T20:55:41.794Z,-0.07
2023-11-21T20:58:12.667Z,-0.11
2023-11-21T21:00:40.073Z,-0.08
2023-11-21T21:03:08.414Z,-0.10
2023-11-21T21:05:39.116Z,-0.08
2023-11-21T21:08:07.648Z,0.04
2023-11-21T21:10:35.453Z,0.22
2023-11-21T21:13:03.670Z,0.26
2023-11-21T21:15:31.013Z,0.09
2023-11-21T21:17:58.803Z,-0.02
2023-11-21T21:20:26.919Z,-0.15
2023-11-21T21:22:54.749Z,-0.47
2023-11-21T21:25:22.060Z,-0.61
2023-11-21T21:27:50.271Z,-0.68
2023-11-21T21:30:17.709Z,-0.86
2023-11-21T21:32:45.326Z,-1.09
2023-11-21T21:35:13.942Z,-1.16
2023-11-21T21:37:41.839Z,-1.09
2023-11-21T21:40:09.834Z,-1.14
2023-11-21T21:42:37.677Z,-1.26
2023-11-21T21:45:05.536Z,-1.30
2023-11-21T21:47:33.295Z,-1.08
2023-11-21T21:50:01.116Z,-1.21
2023-11-21T21:52:36.600Z,-1.10
2023-11-21T21:55:05.562Z,-1.35
2023-11-21T21:57:33.507Z,-1.01
2023-11-21T22:00:00.852Z,-1.09
2023-11-21T22:02:28.806Z,-0.89
2023-11-21T22:04:56.609Z,-0.74
2023-11-21T22:07:24.466Z,-1.03
2023-11-21T22:09:52.684Z,-0.53
2023-11-21T22:12:23.024Z,-0.43
2023-11-21T22:14:50.468Z,-0.33
2023-11-21T22:17:18.195Z,-0.44
2023-11-21T22:19:45.661Z,-0.31
2023-11-21T22:22:13.537Z,-0.05
2023-11-21T22:24:41.097Z,-0.02
2023-11-21T22:27:08.685Z,-0.14
2023-11-21T22:29:37.608Z,-0.14
2023-11-21T22:32:08.690Z,-0.07
2023-11-21T22:34:36.226Z,-0.18
2023-11-21T22:37:04.245Z,-0.15
2023-11-21T22:39:31.797Z,-0.01
2023-11-21T22:41:59.467Z,0.04
2023-11-21T22:44:26.990Z,0.01
2023-11-21T22:46:54.805Z,0.11
2023-11-21T22:49:23.159Z,0.08
2023-11-21T22:51:50.782Z,-0.17
2023-11-21T22:54:18.103Z,-0.14
2023-11-21T22:56:45.772Z,-0.21
2023-11-21T22:59:13.317Z,-0.35
2023-11-21T23:01:41.091Z,-0.22
2023-11-21T23:04:09.909Z,-0.16
2023-11-21T23:06:37.708Z,-0.15
2023-11-21T23:09:05.112Z,-0.03
2023-11-21T23:11:32.916Z,-0.02
2023-11-21T23:14:00.457Z,-0.24
2023-11-21T23:16:28.148Z,-0.11
2023-11-21T23:18:55.571Z,0.00
2023-11-21T23:21:23.294Z,-0.12
2023-11-21T23:23:50.745Z,0.00
2023-11-21T23:26:19.421Z,0.03
2023-11-21T23:28:47.006Z,-0.07
2023-11-21T23:31:15.322Z,0.03
2023-11-21T23:33:42.900Z,-0.18
2023-11-21T23:36:10.667Z,-0.17
2023-11-21T23:38:41.847Z,-0.32
2023-11-21T23:41:09.932Z,-0.17
2023-11-21T23:43:37.307Z,-0.42
2023-11-21T23:46:05.779Z,-0.62
2023-11-21T23:48:33.224Z,-0.89
2023-11-21T23:51:00.987Z,-0.83
2023-11-21T23:53:28.423Z,-0.60
2023-11-21T23:55:56.175Z,-0.49
2023-11-21T23:58:23.523Z,-0.18
